Time;durP1;ratioP1;P1;durP2;ratioP2;P2;SDS_P1;SDS_P2;PMS_P1;PMS_P2;Temp;Humidity;BMP_temperature;BMP_pressure;BME280_temperature;BME280_humidity;BME280_pressure;Samples;Min_cycle;Max_cycle;Signal;HPM_P1;HPM_P2
2021/08/10 00:02:03;;;;;;;11.98;3.80;;;14.20;99.90;;;;;;3544357;40;20031;-61
2021/08/10 00:04:28;;;;;;;8.68;4.05;;;14.20;99.90;;;;;;3543521;40;20347;-60
2021/08/10 00:06:54;;;;;;;8.00;3.85;;;14.20;99.90;;;;;;3542235;40;20034;-61
2021/08/10 00:09:19;;;;;;;6.35;3.80;;;14.20;99.90;;;;;;3542470;40;20145;-60
2021/08/10 00:11:45;;;;;;;14.65;4.20;;;14.20;99.90;;;;;;3542733;40;20065;-61
2021/08/10 00:14:10;;;;;;;8.02;4.20;;;14.30;99.90;;;;;;3542706;40;20049;-61
2021/08/10 00:16:36;;;;;;;11.48;4.90;;;14.30;99.90;;;;;;3549251;40;20383;-61
2021/08/10 00:19:01;;;;;;;8.10;4.75;;;14.30;99.90;;;;;;3542754;40;20034;-61
2021/08/10 00:21:27;;;;;;;6.43;4.03;;;14.30;99.90;;;;;;3541684;40;20101;-61
2021/08/10 00:23:52;;;;;;;7.95;3.92;;;14.40;99.90;;;;;;3542736;40;20074;-61
2021/08/10 00:26:18;;;;;;;10.48;4.25;;;14.40;99.90;;;;;;3542689;40;20112;-61
2021/08/10 00:28:43;;;;;;;9.77;4.13;;;14.30;99.90;;;;;;3541738;40;20041;-61
2021/08/10 00:31:09;;;;;;;8.82;4.35;;;14.30;99.90;;;;;;3542357;40;20034;-60
2021/08/10 00:33:34;;;;;;;8.55;3.80;;;14.30;99.90;;;;;;3542268;40;20050;-60
2021/08/10 00:36:00;;;;;;;8.57;4.35;;;14.20;99.90;;;;;;3549383;40;20034;-60
2021/08/10 00:38:25;;;;;;;11.55;4.22;;;14.20;99.90;;;;;;3549493;40;20042;-60
2021/08/10 00:40:53;;;;;;;8.32;3.78;;;14.20;99.90;;;;;;3540672;40;20038;-60
2021/08/10 00:43:19;;;;;;;14.88;3.97;;;14.20;99.90;;;;;;3531811;40;20670;-61
2021/08/10 00:45:45;;;;;;;9.80;4.35;;;14.20;99.90;;;;;;3549053;40;20070;-60
2021/08/10 00:48:11;;;;;;;10.07;4.28;;;14.20;99.90;;;;;;3549568;40;20042;-60
2021/08/10 00:50:36;;;;;;;5.25;4.18;;;14.20;99.90;;;;;;3541217;40;20834;-60
2021/08/10 00:53:03;;;;;;;9.73;4.65;;;14.30;99.90;;;;;;3548761;40;20039;-61
2021/08/10 00:55:29;;;;;;;7.82;4.30;;;14.20;99.90;;;;;;3542419;40;20038;-61
2021/08/10 00:57:55;;;;;;;8.20;4.15;;;14.20;99.90;;;;;;3541249;40;20049;-61
2021/08/10 01:00:22;;;;;;;8.18;4.35;;;14.20;99.90;;;;;;3540870;40;20026;-60
2021/08/10 01:02:48;;;;;;;8.00;4.55;;;14.30;99.90;;;;;;3542386;40;20506;-60
2021/08/10 01:05:15;;;;;;;11.48;5.00;;;14.30;99.90;;;;;;3540348;40;20601;-61
2021/08/10 01:07:41;;;;;;;10.90;4.32;;;14.30;99.90;;;;;;3541099;40;20046;-60
2021/08/10 01:10:09;;;;;;;8.90;4.63;;;14.20;99.90;;;;;;3548435;40;20030;-61
2021/08/10 01:12:35;;;;;;;7.95;4.28;;;14.20;99.90;;;;;;3548736;40;20038;-60
2021/08/10 01:15:02;;;;;;;8.85;4.68;;;14.30;99.90;;;;;;3549215;40;20065;-60
2021/08/10 01:17:29;;;;;;;10.30;4.57;;;14.40;99.90;;;;;;3547049;40;20600;-61
2021/08/10 01:19:54;;;;;;;7.28;4.05;;;14.40;99.90;;;;;;3540733;40;20022;-61
2021/08/10 01:22:20;;;;;;;13.25;3.97;;;14.30;99.90;;;;;;3548451;40;20030;-61
2021/08/10 01:24:47;;;;;;;7.60;4.28;;;14.30;99.90;;;;;;3540582;40;20035;-61
2021/08/10 01:27:12;;;;;;;6.38;4.47;;;14.20;99.90;;;;;;3548512;40;20589;-60
2021/08/10 01:29:40;;;;;;;9.13;4.18;;;14.10;99.90;;;;;;3548245;40;20026;-60
2021/08/10 01:32:07;;;;;;;8.07;4.25;;;14.00;99.90;;;;;;3549238;40;20128;-62
2021/08/10 01:34:33;;;;;;;7.30;4.07;;;14.00;99.90;;;;;;3547969;40;20352;-61
2021/08/10 01:37:05;;;;;;;5.85;3.97;;;14.00;99.90;;;;;;3540425;40;20030;-60
2021/08/10 01:39:33;;;;;;;5.72;4.05;;;14.00;99.90;;;;;;3540532;40;20173;-61
2021/08/10 01:41:59;;;;;;;8.30;4.38;;;14.00;99.90;;;;;;3539802;40;20037;-63
2021/08/10 01:44:26;;;;;;;8.75;4.22;;;14.00;99.90;;;;;;3548520;40;20034;-60
2021/08/10 01:46:53;;;;;;;9.25;4.10;;;14.00;99.90;;;;;;3538794;40;20673;-61
2021/08/10 01:49:18;;;;;;;8.15;4.07;;;14.00;99.90;;;;;;3548417;40;20047;-61
2021/08/10 01:51:44;;;;;;;6.05;3.80;;;14.00;99.90;;;;;;3541359;40;20051;-61
2021/08/10 01:54:10;;;;;;;8.68;4.07;;;14.00;99.90;;;;;;3539627;40;20385;-61
2021/08/10 01:56:35;;;;;;;8.13;4.90;;;14.10;99.90;;;;;;3548481;40;20035;-60
2021/08/10 01:59:02;;;;;;;8.82;4.57;;;14.10;99.90;;;;;;3548017;40;20045;-61
2021/08/10 02:01:29;;;;;;;9.80;4.60;;;14.00;99.90;;;;;;3548325;40;20074;-61
2021/08/10 02:03:55;;;;;;;12.77;4.63;;;14.10;99.90;;;;;;3540326;40;20031;-61
2021/08/10 02:06:20;;;;;;;11.85;4.70;;;14.10;99.90;;;;;;3540193;40;20341;-61
2021/08/10 02:08:50;;;;;;;9.63;4.65;;;14.10;99.90;;;;;;3540166;40;20054;-61
2021/08/10 02:11:18;;;;;;;14.32;4.70;;;14.10;99.90;;;;;;3539169;40;20030;-60
2021/08/10 02:13:43;;;;;;;7.65;4.68;;;14.20;99.90;;;;;;3548621;40;20041;-61
2021/08/10 02:16:09;;;;;;;10.52;4.80;;;14.10;99.90;;;;;;3541534;40;20042;-60
2021/08/10 02:18:35;;;;;;;8.65;3.83;;;14.10;99.90;;;;;;3548058;40;20129;-60
2021/08/10 02:21:04;;;;;;;5.47;3.92;;;14.10;99.90;;;;;;3546484;40;20050;-64
2021/08/10 02:23:30;;;;;;;12.00;4.68;;;14.00;99.90;;;;;;3539611;40;20030;-61
2021/08/10 02:25:56;;;;;;;9.60;4.43;;;14.00;99.90;;;;;;3540897;40;20837;-63
2021/08/10 02:28:22;;;;;;;11.30;4.22;;;13.90;99.90;;;;;;3547115;40;20616;-61
2021/08/10 02:30:53;;;;;;;9.68;4.43;;;13.90;99.90;;;;;;3539394;40;20034;-61
2021/08/10 02:33:22;;;;;;;8.67;5.20;;;13.80;99.90;;;;;;3537529;40;20060;-61
2021/08/10 02:35:49;;;;;;;10.18;4.80;;;13.80;99.90;;;;;;3547912;40;20038;-60
2021/08/10 02:38:14;;;;;;;11.43;4.55;;;13.70;99.90;;;;;;3539848;40;20039;-60
2021/08/10 02:40:43;;;;;;;13.82;4.95;;;13.70;99.90;;;;;;3538679;40;20141;-61
2021/08/10 02:43:09;;;;;;;9.50;4.85;;;13.60;99.90;;;;;;3539418;40;20420;-61
2021/08/10 02:45:35;;;;;;;10.85;5.45;;;13.60;99.90;;;;;;3547692;40;20034;-61
2021/08/10 02:48:01;;;;;;;26.05;8.82;;;13.50;99.90;;;;;;3547289;40;20034;-61
2021/08/10 02:50:30;;;;;;;12.40;6.38;;;13.50;99.90;;;;;;3538302;40;20097;-61
2021/08/10 02:52:55;;;;;;;14.73;7.50;;;13.50;99.90;;;;;;3538572;40;20039;-61
2021/08/10 02:55:23;;;;;;;8.07;5.63;;;13.50;99.90;;;;;;3539774;40;20321;-66
2021/08/10 02:57:52;;;;;;;9.52;4.75;;;13.50;99.90;;;;;;3536811;40;20038;-61
2021/08/10 03:00:17;;;;;;;8.50;4.72;;;13.60;99.90;;;;;;3539946;40;20038;-60
2021/08/10 03:02:43;;;;;;;9.98;5.40;;;13.60;99.90;;;;;;3539338;40;20037;-61
2021/08/10 03:05:10;;;;;;;7.85;4.55;;;13.60;99.90;;;;;;3540740;40;20124;-60
2021/08/10 03:07:36;;;;;;;12.35;5.20;;;13.60;99.90;;;;;;3537260;40;20031;-60
2021/08/10 03:10:01;;;;;;;10.30;4.82;;;13.70;99.90;;;;;;3541463;40;20037;-60
2021/08/10 03:12:27;;;;;;;10.90;5.15;;;13.60;99.90;;;;;;3539818;40;20568;-63
2021/08/10 03:14:53;;;;;;;9.55;4.53;;;13.60;99.90;;;;;;3534643;40;20039;-60
2021/08/10 03:17:18;;;;;;;8.10;4.07;;;13.60;99.90;;;;;;3539569;40;20046;-60
2021/08/10 03:19:44;;;;;;;7.88;4.35;;;13.60;99.90;;;;;;3539267;40;20113;-60
2021/08/10 03:22:09;;;;;;;11.60;4.10;;;13.60;99.90;;;;;;3548442;40;20033;-61
2021/08/10 03:24:35;;;;;;;7.05;4.20;;;13.60;99.90;;;;;;3537310;40;20055;-60
2021/08/10 03:27:01;;;;;;;8.45;4.70;;;13.60;99.90;;;;;;3547787;40;20035;-60
2021/08/10 03:29:26;;;;;;;6.32;4.32;;;13.60;99.90;;;;;;3537458;40;20038;-60
2021/08/10 03:31:52;;;;;;;10.20;3.92;;;13.60;99.90;;;;;;3540248;40;20037;-60
2021/08/10 03:34:18;;;;;;;6.78;4.45;;;12.80;99.90;;;;;;3546264;40;20061;-60
2021/08/10 03:36:45;;;;;;;12.32;4.53;;;13.50;99.90;;;;;;3547363;40;20035;-60
2021/08/10 03:39:10;;;;;;;9.13;4.40;;;13.40;99.90;;;;;;3536847;40;20054;-60
2021/08/10 03:41:36;;;;;;;12.25;4.50;;;13.40;99.90;;;;;;3539358;40;20030;-60
2021/08/10 03:44:01;;;;;;;7.47;4.20;;;13.50;99.90;;;;;;3541770;40;20132;-60
2021/08/10 03:46:27;;;;;;;6.43;3.67;;;13.50;99.90;;;;;;3541026;40;20316;-61
2021/08/10 03:48:53;;;;;;;8.65;4.60;;;13.40;99.90;;;;;;3537176;40;20411;-61
2021/08/10 03:51:18;;;;;;;8.82;4.35;;;13.40;99.90;;;;;;3549276;40;20618;-61
2021/08/10 03:53:44;;;;;;;9.85;4.55;;;13.50;99.90;;;;;;3540706;40;20038;-61
2021/08/10 03:56:09;;;;;;;7.43;4.45;;;13.40;99.90;;;;;;3541826;40;20116;-61
2021/08/10 03:58:39;;;;;;;8.85;4.72;;;13.40;99.90;;;;;;3541064;40;20081;-63
2021/08/10 04:04:15;;;;;;;12.70;4.18;;;13.40;99.90;;;;;;3538294;40;20375;-61
2021/08/10 04:06:41;;;;;;;7.43;4.22;;;13.50;99.90;;;;;;3539022;40;20441;-61
2021/08/10 04:09:08;;;;;;;9.50;5.00;;;13.50;99.90;;;;;;3532531;40;20038;-61
2021/08/10 04:11:35;;;;;;;16.23;5.40;;;13.50;99.90;;;;;;3541501;40;20043;-61
2021/08/10 04:14:06;;;;;;;7.65;4.78;;;13.70;99.90;;;;;;3539548;40;20068;-61
2021/08/10 04:16:32;;;;;;;8.48;4.82;;;13.70;99.90;;;;;;3541531;40;20049;-61
2021/08/10 04:18:58;;;;;;;10.25;4.65;;;13.70;99.90;;;;;;3540891;40;20027;-61
2021/08/10 04:21:23;;;;;;;13.00;4.88;;;13.80;99.90;;;;;;3548446;40;20033;-61
2021/08/10 04:23:49;;;;;;;7.32;4.43;;;13.80;99.90;;;;;;3548635;40;20042;-61
2021/08/10 04:26:15;;;;;;;8.93;4.93;;;13.90;99.90;;;;;;3541615;40;20034;-61
2021/08/10 04:28:40;;;;;;;7.95;4.25;;;13.80;99.90;;;;;;3542152;40;20050;-61
2021/08/10 04:31:07;;;;;;;6.70;4.30;;;13.80;99.90;;;;;;3540407;40;20034;-66
2021/08/10 04:33:34;;;;;;;8.52;4.40;;;13.80;99.90;;;;;;3549104;40;20062;-61
2021/08/10 04:36:01;;;;;;;8.13;4.30;;;13.80;99.90;;;;;;3542305;40;20054;-61
2021/08/10 04:38:27;;;;;;;9.52;3.90;;;13.80;99.90;;;;;;3540827;40;20232;-61
2021/08/10 04:40:54;;;;;;;6.57;3.90;;;13.80;99.90;;;;;;3549089;40;20026;-61
2021/08/10 04:43:25;;;;;;;10.25;4.30;;;13.80;99.90;;;;;;3549065;40;20067;-61
2021/08/10 04:45:51;;;;;;;7.30;4.03;;;13.80;99.90;;;;;;3548804;40;20033;-61
2021/08/10 04:48:17;;;;;;;7.13;4.00;;;13.70;99.90;;;;;;3536456;40;20078;-61
2021/08/10 04:50:43;;;;;;;8.45;4.32;;;13.70;99.90;;;;;;3541765;40;20042;-61
2021/08/10 04:53:15;;;;;;;7.82;4.75;;;13.80;99.90;;;;;;3540061;40;20112;-61
2021/08/10 04:55:41;;;;;;;8.77;4.10;;;13.80;99.90;;;;;;3540664;40;20046;-61
2021/08/10 04:58:06;;;;;;;9.68;4.57;;;13.80;99.90;;;;;;3541879;40;20047;-61
2021/08/10 05:00:34;;;;;;;11.38;4.90;;;13.80;99.90;;;;;;3540199;40;20071;-61
2021/08/10 05:03:00;;;;;;;7.72;4.63;;;14.20;99.90;;;;;;3535180;40;20043;-61
2021/08/10 05:05:26;;;;;;;11.70;4.45;;;13.80;99.90;;;;;;3541322;40;20045;-61
2021/08/10 05:07:56;;;;;;;9.25;4.00;;;13.90;99.90;;;;;;3540798;40;20046;-60
2021/08/10 05:10:21;;;;;;;10.43;4.45;;;13.90;99.90;;;;;;3541268;40;20042;-61
2021/08/10 05:12:50;;;;;;;8.98;4.53;;;14.00;99.90;;;;;;3540481;40;20392;-60
2021/08/10 05:15:20;;;;;;;10.40;5.03;;;14.00;99.90;;;;;;3540690;40;20034;-61
2021/08/10 05:17:45;;;;;;;7.65;4.40;;;14.10;99.90;;;;;;3548602;40;20408;-61
2021/08/10 05:20:11;;;;;;;7.53;4.57;;;14.10;99.90;;;;;;3548869;40;20052;-61
2021/08/10 05:22:40;;;;;;;5.70;4.30;;;14.20;99.90;;;;;;3540387;40;20104;-61
2021/08/10 05:25:06;;;;;;;9.35;4.35;;;14.20;99.90;;;;;;3540048;40;20036;-61
2021/08/10 05:27:33;;;;;;;11.20;4.65;;;14.30;99.90;;;;;;3540276;40;20042;-61
2021/08/10 05:29:59;;;;;;;6.53;4.50;;;14.80;99.90;;;;;;3539680;40;20034;-61
2021/08/10 05:32:25;;;;;;;12.65;4.68;;;14.40;99.90;;;;;;3548281;40;20037;-61
2021/08/10 05:34:51;;;;;;;11.52;5.63;;;14.40;99.90;;;;;;3547792;40;20061;-61
2021/08/10 05:37:17;;;;;;;11.35;4.85;;;14.60;99.90;;;;;;3539970;40;20681;-61
2021/08/10 05:39:44;;;;;;;9.73;5.32;;;14.60;99.90;;;;;;3548071;40;20116;-61
2021/08/10 05:42:09;;;;;;;6.68;4.95;;;14.70;99.90;;;;;;3541280;40;20616;-61
2021/08/10 05:44:35;;;;;;;10.48;4.78;;;14.70;99.90;;;;;;3538715;40;20045;-61
2021/08/10 05:47:01;;;;;;;8.60;4.82;;;14.90;99.90;;;;;;3548148;40;20041;-61
2021/08/10 05:49:26;;;;;;;7.07;4.30;;;14.90;99.90;;;;;;3541198;40;20034;-61
2021/08/10 05:51:52;;;;;;;6.82;4.53;;;15.00;99.90;;;;;;3547796;40;20109;-61
2021/08/10 05:54:19;;;;;;;8.50;4.68;;;15.00;99.90;;;;;;3536795;40;20034;-61
2021/08/10 05:56:48;;;;;;;7.00;3.75;;;15.30;99.90;;;;;;3547433;40;20034;-61
2021/08/10 05:59:16;;;;;;;9.93;4.50;;;15.30;99.90;;;;;;3537109;40;20030;-61
2021/08/10 06:01:43;;;;;;;6.22;4.00;;;15.40;99.90;;;;;;3540088;40;20030;-66
2021/08/10 06:04:09;;;;;;;10.00;4.03;;;15.60;99.90;;;;;;3548443;40;20045;-67
2021/08/10 06:06:36;;;;;;;6.18;3.30;;;15.70;99.90;;;;;;3549058;40;20687;-67
2021/08/10 06:09:01;;;;;;;7.75;3.58;;;15.80;99.90;;;;;;3540668;40;20030;-67
2021/08/10 06:11:29;;;;;;;9.13;3.97;;;15.90;99.90;;;;;;3540104;40;20034;-67
2021/08/10 06:13:54;;;;;;;5.30;3.03;;;16.00;99.90;;;;;;3547639;40;20208;-67
2021/08/10 06:16:21;;;;;;;10.38;3.33;;;16.40;99.90;;;;;;3541140;40;20545;-67
2021/08/10 06:18:47;;;;;;;7.55;4.05;;;16.60;99.90;;;;;;3540081;40;20123;-67
2021/08/10 06:21:20;;;;;;;9.88;2.85;;;16.70;99.90;;;;;;3531342;40;20114;-67
2021/08/10 06:23:45;;;;;;;5.93;2.72;;;16.90;99.90;;;;;;3540604;40;20112;-67
2021/08/10 06:26:11;;;;;;;4.95;2.70;;;17.00;99.90;;;;;;3547567;40;20058;-67
2021/08/10 06:28:37;;;;;;;10.32;2.78;;;17.10;99.90;;;;;;3540750;40;20049;-68
2021/08/10 06:31:02;;;;;;;5.97;2.90;;;17.20;99.90;;;;;;3547016;40;20697;-68
2021/08/10 06:33:29;;;;;;;7.85;2.08;;;17.40;99.90;;;;;;3539923;40;20061;-68
2021/08/10 06:35:55;;;;;;;7.70;2.67;;;17.60;99.90;;;;;;3548377;40;20039;-68
2021/08/10 06:38:25;;;;;;;3.90;2.47;;;17.70;99.90;;;;;;3547740;40;20049;-68
2021/08/10 06:40:50;;;;;;;5.60;2.30;;;17.90;99.90;;;;;;3541060;40;20022;-68
2021/08/10 06:43:17;;;;;;;7.45;2.47;;;18.10;99.90;;;;;;3547817;40;20046;-68
2021/08/10 06:45:43;;;;;;;9.70;2.35;;;18.30;99.90;;;;;;3548222;40;20407;-68
2021/08/10 06:48:12;;;;;;;4.40;2.30;;;18.10;99.90;;;;;;3538546;40;20090;-68
2021/08/10 06:50:38;;;;;;;6.43;2.33;;;18.30;99.90;;;;;;3547736;40;20427;-68
2021/08/10 06:53:03;;;;;;;6.20;2.38;;;18.30;99.90;;;;;;3548113;40;20062;-68
2021/08/10 06:55:31;;;;;;;5.53;2.28;;;18.20;99.90;;;;;;3547326;40;20030;-67
2021/08/10 06:58:05;;;;;;;9.07;2.63;;;18.20;99.90;;;;;;3538310;40;20058;-68
2021/08/10 07:00:30;;;;;;;6.57;2.40;;;18.30;99.90;;;;;;3540449;40;20030;-67
2021/08/10 07:02:55;;;;;;;5.95;2.30;;;18.50;99.90;;;;;;3540661;40;20049;-68
2021/08/10 07:05:21;;;;;;;6.45;2.75;;;18.40;99.90;;;;;;3534865;40;20038;-68
2021/08/10 07:07:47;;;;;;;4.93;2.38;;;18.40;99.90;;;;;;3539468;40;20452;-68
2021/08/10 07:10:13;;;;;;;5.90;2.58;;;18.40;99.90;;;;;;3539566;40;20026;-68
2021/08/10 07:12:39;;;;;;;3.22;2.00;;;18.40;99.90;;;;;;3538989;40;20030;-68
2021/08/10 07:15:04;;;;;;;6.43;2.70;;;18.40;99.90;;;;;;3548167;40;20039;-68
2021/08/10 07:17:31;;;;;;;4.60;2.30;;;18.30;99.90;;;;;;3540318;40;20708;-68
2021/08/10 07:19:58;;;;;;;7.13;2.58;;;18.40;99.90;;;;;;3540395;40;20042;-69
2021/08/10 07:22:25;;;;;;;5.88;2.65;;;18.40;99.90;;;;;;3540296;40;20034;-68
2021/08/10 07:24:51;;;;;;;9.20;2.55;;;18.40;99.90;;;;;;3548746;40;20034;-68
2021/08/10 07:27:18;;;;;;;6.30;2.35;;;18.50;99.90;;;;;;3548787;40;20338;-68
2021/08/10 07:29:44;;;;;;;7.55;2.40;;;18.50;99.90;;;;;;3532076;40;20507;-68
2021/08/10 07:32:10;;;;;;;6.45;2.40;;;18.60;99.90;;;;;;3548759;40;20722;-68
2021/08/10 07:34:36;;;;;;;3.75;2.40;;;18.60;99.90;;;;;;3541627;40;20070;-68
2021/08/10 07:37:02;;;;;;;7.25;2.47;;;18.40;99.90;;;;;;3540739;40;20604;-68
2021/08/10 07:39:28;;;;;;;8.60;3.42;;;18.60;99.90;;;;;;3540205;40;20146;-68
2021/08/10 07:41:54;;;;;;;7.20;2.70;;;18.60;99.90;;;;;;3539647;40;20037;-68
2021/08/10 07:44:20;;;;;;;8.65;2.70;;;18.80;99.90;;;;;;3540513;40;20078;-68
2021/08/10 07:46:49;;;;;;;5.18;2.60;;;18.80;99.90;;;;;;3540032;40;20095;-68
2021/08/10 07:49:20;;;;;;;12.02;2.50;;;19.00;99.90;;;;;;3532514;40;20026;-68
2021/08/10 07:51:46;;;;;;;5.47;3.08;;;19.10;99.90;;;;;;3547551;40;20121;-68
2021/08/10 07:54:11;;;;;;;7.50;2.70;;;19.20;99.90;;;;;;3541454;40;20038;-68
2021/08/10 07:56:37;;;;;;;5.45;2.53;;;19.40;99.90;;;;;;3537386;40;20033;-68
2021/08/10 07:59:02;;;;;;;8.57;2.92;;;19.50;99.90;;;;;;3539414;40;20450;-68
2021/08/10 08:01:28;;;;;;;5.47;2.40;;;19.50;99.90;;;;;;3540493;40;20121;-68
2021/08/10 08:03:54;;;;;;;5.63;2.83;;;19.60;99.90;;;;;;3547969;40;20658;-68
2021/08/10 08:06:20;;;;;;;4.35;2.42;;;19.50;99.90;;;;;;3549566;40;20027;-68
2021/08/10 08:08:47;;;;;;;8.00;2.42;;;19.70;99.90;;;;;;3549158;40;20277;-68
2021/08/10 08:11:17;;;;;;;4.45;2.22;;;19.80;99.90;;;;;;3548519;40;20403;-68
2021/08/10 08:13:43;;;;;;;5.32;2.33;;;19.70;99.90;;;;;;3534520;40;20027;-68
2021/08/10 08:16:08;;;;;;;5.07;2.25;;;19.90;99.90;;;;;;3541933;40;20131;-68
2021/08/10 08:18:34;;;;;;;8.05;2.72;;;20.00;99.90;;;;;;3541859;40;20430;-68
2021/08/10 08:21:01;;;;;;;5.63;2.67;;;20.10;99.90;;;;;;3540528;40;20074;-68
2021/08/10 08:23:32;;;;;;;7.05;2.35;;;19.80;99.90;;;;;;3539190;40;20086;-68
2021/08/10 08:26:01;;;;;;;9.93;2.33;;;19.60;99.90;;;;;;3540369;40;20694;-68
2021/08/10 08:28:29;;;;;;;7.50;2.10;;;19.60;99.90;;;;;;3534442;40;20710;-67
2021/08/10 08:30:55;;;;;;;4.18;2.28;;;19.70;99.90;;;;;;3535621;40;20058;-69
2021/08/10 08:33:21;;;;;;;8.25;1.92;;;19.80;99.90;;;;;;3538652;40;20042;-73
2021/08/10 08:35:48;;;;;;;7.45;2.65;;;19.80;99.90;;;;;;3540206;40;20045;-72
2021/08/10 08:38:13;;;;;;;5.88;2.53;;;19.80;99.90;;;;;;3535989;40;20039;-73
2021/08/10 08:40:39;;;;;;;4.30;2.40;;;19.60;99.90;;;;;;3547678;40;20034;-72
2021/08/10 08:43:06;;;;;;;16.60;7.85;;;19.60;99.90;;;;;;3548152;40;20626;-73
2021/08/10 08:45:32;;;;;;;6.00;3.15;;;19.70;99.90;;;;;;3531784;40;20035;-73
2021/08/10 08:47:57;;;;;;;11.40;5.22;;;19.80;99.90;;;;;;3535729;40;20301;-75
2021/08/10 08:50:23;;;;;;;12.48;2.72;;;19.90;99.90;;;;;;3540476;40;20033;-73
2021/08/10 08:52:48;;;;;;;6.40;2.53;;;19.80;99.90;;;;;;3540754;40;20630;-73
2021/08/10 08:55:14;;;;;;;10.45;3.15;;;19.80;99.90;;;;;;3541105;40;20041;-73
2021/08/10 08:57:39;;;;;;;7.07;2.05;;;19.90;99.90;;;;;;3548669;40;20427;-73
2021/08/10 09:00:05;;;;;;;6.75;2.30;;;19.80;99.90;;;;;;3532663;40;20036;-73
2021/08/10 09:02:33;;;;;;;7.22;2.85;;;19.90;99.90;;;;;;3539876;40;20094;-73
2021/08/10 09:04:58;;;;;;;17.27;6.35;;;20.00;99.90;;;;;;3534696;40;20054;-73
2021/08/10 09:07:24;;;;;;;9.82;3.72;;;20.20;99.90;;;;;;3548215;40;20026;-73
2021/08/10 09:09:56;;;;;;;5.28;2.08;;;20.40;99.90;;;;;;3548416;40;20328;-73
2021/08/10 09:12:21;;;;;;;7.60;2.40;;;20.40;99.90;;;;;;3540574;40;20034;-73
2021/08/10 09:14:50;;;;;;;7.30;2.20;;;20.60;99.90;;;;;;3539570;40;20748;-72
2021/08/10 09:17:20;;;;;;;3.70;2.47;;;20.60;99.90;;;;;;3540148;40;20031;-73
2021/08/10 09:19:48;;;;;;;19.88;10.38;;;20.70;99.90;;;;;;3539675;40;20041;-73
2021/08/10 09:22:15;;;;;;;5.82;2.42;;;20.80;99.90;;;;;;3548259;40;20037;-73
2021/08/10 09:24:41;;;;;;;9.75;2.58;;;21.20;99.90;;;;;;3548456;40;20043;-73
2021/08/10 09:27:07;;;;;;;12.57;4.70;;;21.30;99.90;;;;;;3535304;40;20367;-73
2021/08/10 09:29:32;;;;;;;14.15;2.70;;;21.50;99.90;;;;;;3540136;40;20049;-71
2021/08/10 09:31:58;;;;;;;7.63;2.40;;;21.20;99.90;;;;;;3540353;40;20075;-70
2021/08/10 09:34:24;;;;;;;6.07;2.03;;;21.40;99.90;;;;;;3540787;40;20053;-69
2021/08/10 09:36:52;;;;;;;4.90;2.45;;;21.70;99.90;;;;;;3534476;40;20046;-70
2021/08/10 09:39:17;;;;;;;10.05;2.47;;;21.60;99.90;;;;;;3539938;40;20074;-70
2021/08/10 09:41:43;;;;;;;6.25;2.25;;;21.60;99.90;;;;;;3541713;40;20037;-70
2021/08/10 09:44:08;;;;;;;6.82;2.25;;;21.90;99.90;;;;;;3539676;40;20712;-70
2021/08/10 09:46:34;;;;;;;10.73;2.30;;;21.90;99.90;;;;;;3548811;40;20049;-70
2021/08/10 09:49:01;;;;;;;13.60;5.63;;;21.90;99.90;;;;;;3531828;40;20048;-70
2021/08/10 09:51:29;;;;;;;9.07;2.47;;;22.00;99.90;;;;;;3538113;40;20668;-69
2021/08/10 09:53:55;;;;;;;4.43;2.08;;;21.90;99.90;;;;;;3547768;40;20026;-70
2021/08/10 09:56:20;;;;;;;4.68;1.65;;;22.10;99.90;;;;;;3537423;40;20525;-70
2021/08/10 09:58:46;;;;;;;8.30;2.42;;;22.10;99.90;;;;;;3548214;40;20049;-70
2021/08/10 10:01:11;;;;;;;3.85;2.05;;;22.30;99.90;;;;;;3534678;40;20038;-70
2021/08/10 10:03:37;;;;;;;4.60;2.25;;;22.40;99.90;;;;;;3548632;40;20037;-69
2021/08/10 10:06:15;;;;;;;11.63;4.63;;;22.00;99.90;;;;;;3540604;40;20042;-70
2021/08/10 10:08:41;;;;;;;20.25;11.52;;;21.60;99.90;;;;;;3540284;40;20041;-71
2021/08/10 10:11:07;;;;;;;5.82;2.22;;;21.40;99.90;;;;;;3548650;40;20042;-70
2021/08/10 10:13:36;;;;;;;7.50;2.55;;;21.40;99.90;;;;;;3547990;40;20719;-70
2021/08/10 10:16:01;;;;;;;5.80;2.20;;;21.40;99.90;;;;;;3541482;40;20046;-70
2021/08/10 10:18:29;;;;;;;15.27;3.80;;;21.40;99.90;;;;;;3541497;40;20514;-70
2021/08/10 10:20:54;;;;;;;11.77;3.30;;;21.60;99.90;;;;;;3541385;40;20030;-70
2021/08/10 10:23:20;;;;;;;8.00;2.45;;;21.90;99.90;;;;;;3540815;40;20362;-69
2021/08/10 10:25:45;;;;;;;5.63;1.70;;;21.90;99.90;;;;;;3541992;40;20602;-70
2021/08/10 10:28:11;;;;;;;2.50;1.65;;;21.80;99.90;;;;;;3541291;40;20037;-70
2021/08/10 10:30:37;;;;;;;11.05;2.10;;;21.80;99.90;;;;;;3540446;40;20050;-70
2021/08/10 10:33:02;;;;;;;4.05;1.70;;;22.00;99.90;;;;;;3548264;40;20046;-70
2021/08/10 10:35:28;;;;;;;6.38;2.10;;;22.10;99.90;;;;;;3541548;40;20018;-70
2021/08/10 10:37:54;;;;;;;7.22;1.70;;;22.20;99.90;;;;;;3541552;40;20053;-68
2021/08/10 10:40:19;;;;;;;4.00;1.88;;;22.10;99.90;;;;;;3548483;40;20033;-71
2021/08/10 10:42:45;;;;;;;4.55;1.73;;;21.80;99.90;;;;;;3541603;40;20049;-70
2021/08/10 10:45:11;;;;;;;7.28;1.70;;;21.70;99.90;;;;;;3541133;40;20030;-72
2021/08/10 10:47:41;;;;;;;6.13;1.63;;;21.50;99.90;;;;;;3541046;40;20084;-72
2021/08/10 10:50:06;;;;;;;4.95;1.67;;;21.30;99.90;;;;;;3540550;40;20034;-72
2021/08/10 10:52:31;;;;;;;5.07;1.85;;;21.20;99.90;;;;;;3540869;40;20035;-73
2021/08/10 10:54:57;;;;;;;6.82;1.60;;;21.30;99.90;;;;;;3539494;40;20045;-73
2021/08/10 10:57:22;;;;;;;3.13;1.83;;;21.30;99.90;;;;;;3540617;40;20045;-72
2021/08/10 10:59:50;;;;;;;4.38;2.00;;;22.20;99.90;;;;;;3547882;40;20370;-73
2021/08/10 11:02:15;;;;;;;13.75;2.40;;;23.10;99.90;;;;;;3539693;40;20046;-72
2021/08/10 11:04:41;;;;;;;8.52;2.20;;;23.60;99.10;;;;;;3540094;40;20045;-72
2021/08/10 11:07:06;;;;;;;4.57;1.70;;;23.70;99.90;;;;;;3540310;40;20066;-72
2021/08/10 11:09:32;;;;;;;4.05;1.73;;;23.90;99.30;;;;;;3540336;40;20802;-72
2021/08/10 11:11:57;;;;;;;16.38;6.22;;;23.90;99.40;;;;;;3541039;40;20033;-71
2021/08/10 11:14:23;;;;;;;11.43;3.13;;;24.10;98.10;;;;;;3540842;40;20042;-72
2021/08/10 11:16:48;;;;;;;5.25;2.40;;;23.90;98.60;;;;;;3541165;40;20042;-72
2021/08/10 11:19:13;;;;;;;5.68;2.45;;;24.10;98.40;;;;;;3541276;40;20124;-72
2021/08/10 11:21:39;;;;;;;7.88;4.53;;;24.20;97.60;;;;;;3540656;40;20447;-72
2021/08/10 11:24:05;;;;;;;7.45;1.40;;;24.10;97.00;;;;;;3541097;40;20204;-69
2021/08/10 11:26:30;;;;;;;2.92;1.35;;;24.20;96.30;;;;;;3531317;40;20026;-67
2021/08/10 11:28:56;;;;;;;3.50;1.70;;;24.20;95.70;;;;;;3540421;40;20069;-68
2021/08/10 11:31:21;;;;;;;7.07;1.60;;;24.30;97.70;;;;;;3540181;40;20038;-68
2021/08/10 11:33:47;;;;;;;8.45;1.30;;;24.40;95.90;;;;;;3538881;40;20106;-68
2021/08/10 11:36:12;;;;;;;5.57;1.90;;;24.80;95.50;;;;;;3547341;40;20018;-68
2021/08/10 11:38:38;;;;;;;3.83;1.42;;;24.70;95.20;;;;;;3539171;40;20078;-68
2021/08/10 11:41:03;;;;;;;3.75;1.33;;;24.70;96.50;;;;;;3540135;40;20026;-68
2021/08/10 11:43:28;;;;;;;4.47;1.50;;;24.70;95.80;;;;;;3540607;40;20363;-68
2021/08/10 11:45:54;;;;;;;2.30;1.33;;;25.00;95.20;;;;;;3539889;40;20043;-68
2021/08/10 11:48:22;;;;;;;4.28;1.45;;;25.40;94.70;;;;;;3540585;40;20047;-68
2021/08/10 11:50:49;;;;;;;3.97;1.40;;;25.30;94.30;;;;;;3538555;40;20061;-68
2021/08/10 11:53:14;;;;;;;4.00;1.20;;;25.70;94.30;;;;;;3540234;40;20074;-68
2021/08/10 11:55:40;;;;;;;6.05;1.50;;;25.80;93.40;;;;;;3540512;40;20038;-68
2021/08/10 11:58:05;;;;;;;3.50;1.20;;;26.00;93.80;;;;;;3539571;40;20461;-69
2021/08/10 12:00:31;;;;;;;3.58;1.02;;;26.00;93.80;;;;;;3539934;40;20038;-68
2021/08/10 12:02:56;;;;;;;7.57;1.35;;;25.80;93.80;;;;;;3540904;40;20132;-68
2021/08/10 12:05:22;;;;;;;6.40;1.65;;;25.90;94.00;;;;;;3541707;40;20034;-68
2021/08/10 12:07:47;;;;;;;4.38;1.55;;;26.00;92.40;;;;;;3541980;40;20030;-69
2021/08/10 12:10:13;;;;;;;4.57;1.20;;;25.90;92.20;;;;;;3541056;40;20052;-68
2021/08/10 12:12:38;;;;;;;3.80;1.35;;;25.60;94.10;;;;;;3541477;40;20876;-68
2021/08/10 12:15:04;;;;;;;3.03;1.23;;;25.50;92.80;;;;;;3541422;40;20038;-68
2021/08/10 12:17:30;;;;;;;2.78;1.13;;;26.70;92.20;;;;;;3541756;40;20042;-68
2021/08/10 12:19:56;;;;;;;5.85;1.70;;;;;;;;;;3548684;40;20026;-68
2021/08/10 12:22:22;;;;;;;7.85;1.60;;;26.60;93.20;;;;;;3542250;40;20033;-68
2021/08/10 12:24:47;;;;;;;2.88;1.20;;;26.40;92.40;;;;;;3542015;40;20046;-68
2021/08/10 12:27:13;;;;;;;3.42;1.10;;;26.30;92.50;;;;;;3541467;40;20041;-68
2021/08/10 12:29:39;;;;;;;5.28;1.48;;;;;;;;;;3541568;40;20038;-67
2021/08/10 12:32:04;;;;;;;2.67;1.38;;;26.00;91.30;;;;;;3542213;40;20108;-68
2021/08/10 12:34:30;;;;;;;7.38;1.38;;;;;;;;;;3541903;40;20058;-67
2021/08/10 12:36:56;;;;;;;9.48;1.63;;;25.70;92.50;;;;;;3543166;40;20740;-67
2021/08/10 12:39:22;;;;;;;4.22;1.60;;;;;;;;;;3542654;40;20050;-71
2021/08/10 12:41:48;;;;;;;4.57;1.70;;;;;;;;;;3541637;40;20342;-70
2021/08/10 12:44:14;;;;;;;4.00;1.35;;;26.20;92.60;;;;;;3542027;40;20034;-71